createdAt,value
2023-03-31T00:02:16.412Z,2.43
2023-03-31T00:04:53.040Z,2.43
2023-03-31T00:07:24.659Z,2.47
2023-03-31T00:10:07.099Z,2.43
2023-03-31T00:12:47.320Z,2.41
2023-03-31T00:15:16.402Z,2.41
2023-03-31T00:17:51.255Z,2.38
2023-03-31T00:20:20.572Z,2.39
2023-03-31T00:22:49.257Z,2.32
2023-03-31T00:25:17.632Z,2.30
2023-03-31T00:27:47.186Z,2.35
2023-03-31T00:30:17.187Z,2.34
2023-03-31T00:32:49.367Z,2.30
2023-03-31T00:35:18.239Z,2.32
2023-03-31T00:37:47.613Z,2.27
2023-03-31T00:40:15.917Z,2.21
2023-03-31T00:42:44.818Z,2.15
2023-03-31T00:45:16.827Z,2.14
2023-03-31T00:47:52.283Z,2.10
2023-03-31T00:50:27.607Z,2.02
2023-03-31T00:52:58.388Z,1.95
2023-03-31T00:55:33.620Z,1.91
2023-03-31T00:58:02.429Z,1.83
2023-03-31T01:00:31.947Z,1.74
2023-03-31T01:03:10.610Z,1.78
2023-03-31T01:05:50.516Z,1.79
2023-03-31T01:08:22.615Z,1.75
2023-03-31T01:10:57.616Z,1.65
2023-03-31T01:13:28.128Z,1.56
2023-03-31T01:15:57.487Z,1.55
2023-03-31T01:18:26.069Z,1.60
2023-03-31T01:21:31.039Z,1.57
2023-03-31T01:24:26.743Z,1.57
2023-03-31T01:27:26.430Z,1.57
2023-03-31T01:30:23.618Z,1.52
2023-03-31T01:33:40.812Z,1.43
2023-03-31T01:36:17.392Z,1.39
2023-03-31T01:39:02.318Z,1.49
2023-03-31T01:41:49.447Z,1.50
2023-03-31T01:44:27.348Z,1.41
2023-03-31T01:46:59.297Z,1.36
2023-03-31T01:49:42.508Z,1.33
2023-03-31T01:52:40.256Z,1.29
2023-03-31T01:55:47.380Z,1.30
2023-03-31T01:58:15.360Z,1.24
2023-03-31T02:00:57.438Z,1.17
2023-03-31T02:03:30.417Z,1.19
2023-03-31T02:06:04.173Z,1.21
2023-03-31T02:08:36.890Z,1.19
2023-03-31T02:11:06.053Z,1.18
2023-03-31T02:13:40.258Z,1.11
2023-03-31T02:16:15.927Z,1.01
2023-03-31T02:18:44.968Z,1.02
2023-03-31T02:21:15.253Z,1.02
2023-03-31T02:23:45.033Z,0.99
2023-03-31T02:26:21.093Z,0.95
2023-03-31T02:28:49.157Z,0.95
2023-03-31T02:31:49.435Z,0.86
2023-03-31T02:34:17.786Z,0.83
2023-03-31T02:36:49.638Z,0.85
2023-03-31T02:39:27.920Z,0.90
2023-03-31T02:41:57.271Z,0.98
2023-03-31T02:44:25.429Z,0.91
2023-03-31T02:46:54.204Z,0.81
2023-03-31T02:49:22.800Z,0.71
2023-03-31T02:52:12.711Z,0.64
2023-03-31T02:55:10.243Z,0.58
2023-03-31T02:58:24.157Z,0.58
2023-03-31T03:01:09.818Z,0.50
2023-03-31T03:03:50.628Z,0.49
2023-03-31T03:06:40.293Z,0.49
2023-03-31T03:09:39.632Z,0.47
2023-03-31T03:12:25.324Z,0.45
2023-03-31T03:15:29.907Z,0.50
2023-03-31T03:17:58.761Z,0.53
2023-03-31T03:20:29.245Z,0.59
2023-03-31T03:22:59.664Z,0.58
2023-03-31T03:25:28.113Z,0.61
2023-03-31T03:27:57.928Z,0.67
2023-03-31T03:30:26.140Z,0.75
2023-03-31T03:32:56.545Z,0.79
2023-03-31T03:35:25.933Z,0.85
2023-03-31T03:37:54.596Z,0.92
2023-03-31T03:40:23.140Z,0.95
2023-03-31T03:42:52.202Z,1.04
2023-03-31T03:45:20.968Z,1.08
2023-03-31T03:47:49.599Z,1.12
2023-03-31T03:50:20.628Z,1.56
2023-03-31T03:52:49.808Z,3.75
2023-03-31T03:55:24.104Z,6.63
2023-03-31T03:57:52.932Z,8.28
2023-03-31T04:00:21.374Z,9.55
2023-03-31T04:02:49.567Z,10.53
2023-03-31T04:05:18.062Z,12.01
2023-03-31T04:07:46.371Z,12.94
2023-03-31T04:10:16.254Z,13.16
2023-03-31T04:12:44.867Z,13.60
2023-03-31T04:15:15.387Z,13.70
2023-03-31T04:17:51.211Z,13.78
2023-03-31T04:20:19.615Z,14.42
2023-03-31T04:22:52.732Z,14.71
2023-03-31T04:25:23.206Z,15.77
2023-03-31T04:27:55.358Z,15.96
2023-03-31T04:30:31.302Z,15.52
2023-03-31T04:33:01.579Z,15.94
2023-03-31T04:35:49.954Z,15.40
2023-03-31T04:38:21.761Z,15.46
2023-03-31T04:40:51.721Z,15.16
2023-03-31T04:43:21.642Z,16.07
2023-03-31T04:45:50.890Z,16.78
2023-03-31T04:48:20.494Z,17.19
2023-03-31T04:50:48.812Z,17.63
2023-03-31T04:53:16.948Z,17.14
2023-03-31T04:55:52.717Z,17.03
2023-03-31T04:58:20.904Z,17.08
2023-03-31T05:00:54.450Z,18.05
2023-03-31T05:03:26.792Z,17.75
2023-03-31T05:06:18.370Z,17.89
2023-03-31T05:08:48.651Z,17.59
2023-03-31T05:11:21.461Z,17.99
2023-03-31T05:13:50.424Z,18.18
2023-03-31T05:16:18.731Z,18.48
2023-03-31T05:18:48.959Z,19.07
2023-03-31T05:21:20.539Z,18.67
2023-03-31T05:23:50.286Z,19.18
2023-03-31T05:26:18.845Z,19.46
2023-03-31T05:28:49.847Z,19.64
2023-03-31T05:31:18.690Z,20.24
2023-03-31T05:33:47.484Z,20.62
2023-03-31T05:36:19.782Z,20.03
2023-03-31T05:38:48.042Z,19.06
2023-03-31T05:41:21.136Z,20.10
2023-03-31T05:43:49.785Z,21.25
2023-03-31T05:46:18.967Z,22.56
2023-03-31T05:48:50.886Z,22.60
2023-03-31T05:51:19.235Z,21.75
2023-03-31T05:53:47.450Z,22.35
2023-03-31T05:56:15.781Z,21.72
2023-03-31T05:58:46.378Z,20.58
2023-03-31T06:01:20.026Z,20.51
2023-03-31T06:04:13.989Z,21.27
2023-03-31T06:06:44.953Z,22.03
2023-03-31T06:09:14.278Z,22.19
2023-03-31T06:11:44.322Z,22.44
2023-03-31T06:14:12.783Z,21.14
2023-03-31T06:16:41.060Z,17.83
2023-03-31T06:19:09.951Z,14.77
2023-03-31T06:21:38.911Z,13.05
2023-03-31T06:24:09.126Z,11.72
2023-03-31T06:26:38.396Z,10.79
2023-03-31T06:29:06.725Z,10.12
2023-03-31T06:31:35.774Z,9.44
2023-03-31T06:34:06.099Z,9.01
2023-03-31T06:36:34.567Z,8.75
2023-03-31T06:39:03.296Z,8.57
2023-03-31T06:41:31.512Z,8.49
2023-03-31T06:43:59.710Z,8.28
2023-03-31T06:46:28.427Z,8.24
2023-03-31T06:48:59.505Z,8.29
2023-03-31T06:51:29.254Z,8.38
2023-03-31T06:53:58.972Z,8.32
2023-03-31T06:56:28.738Z,8.31
2023-03-31T06:58:57.139Z,8.36
2023-03-31T07:01:26.470Z,8.54
2023-03-31T07:03:58.179Z,8.56
2023-03-31T07:06:26.743Z,8.60
2023-03-31T07:08:54.796Z,8.53
2023-03-31T07:11:22.993Z,8.56
2023-03-31T07:13:51.874Z,8.60
2023-03-31T07:16:20.511Z,8.66
2023-03-31T07:18:55.174Z,8.72
2023-03-31T07:21:23.469Z,8.80
2023-03-31T07:23:52.419Z,8.73
2023-03-31T07:26:21.841Z,8.62
2023-03-31T07:28:52.345Z,8.70
2023-03-31T07:31:23.654Z,9.22
2023-03-31T07:33:54.567Z,9.79
2023-03-31T07:36:24.518Z,10.34
2023-03-31T07:38:57.104Z,10.95
2023-03-31T07:41:26.737Z,11.27
2023-03-31T07:43:55.385Z,11.30
2023-03-31T07:46:26.508Z,11.59
2023-03-31T07:48:55.938Z,11.87
2023-03-31T07:51:27.623Z,12.05
2023-03-31T07:53:58.661Z,12.22
2023-03-31T07:56:27.776Z,12.36
2023-03-31T07:58:58.863Z,12.52
2023-03-31T08:01:30.293Z,12.70
2023-03-31T08:04:00.266Z,12.94
2023-03-31T08:06:31.746Z,12.88
2023-03-31T08:09:00.621Z,12.90
2023-03-31T08:11:29.023Z,13.20
2023-03-31T08:13:57.434Z,13.46
2023-03-31T08:16:25.790Z,13.53
2023-03-31T08:18:54.922Z,13.46
2023-03-31T08:21:24.608Z,13.15
2023-03-31T08:23:57.107Z,12.81
2023-03-31T08:26:28.137Z,12.99
2023-03-31T08:28:59.725Z,13.31
2023-03-31T08:31:29.491Z,13.75
2023-03-31T08:33:57.842Z,13.95
2023-03-31T08:36:27.676Z,14.03
2023-03-31T08:38:57.812Z,14.37
2023-03-31T08:42:03.395Z,14.30
2023-03-31T08:44:38.187Z,14.12
2023-03-31T08:47:10.715Z,14.17
2023-03-31T08:49:46.062Z,14.04
2023-03-31T08:52:25.115Z,13.98
2023-03-31T08:54:59.609Z,13.77
2023-03-31T08:57:43.646Z,13.76
2023-03-31T09:00:18.214Z,13.53
2023-03-31T09:03:17.499Z,13.56
2023-03-31T09:06:02.765Z,13.67
2023-03-31T09:08:40.122Z,13.66
2023-03-31T09:11:31.384Z,13.60
2023-03-31T09:14:18.877Z,13.70
2023-03-31T09:16:47.585Z,13.89
2023-03-31T09:19:23.509Z,13.91
2023-03-31T09:21:54.088Z,13.64
2023-03-31T09:24:32.762Z,13.39
2023-03-31T09:27:07.985Z,13.43
2023-03-31T09:30:10.312Z,13.39
2023-03-31T09:32:44.448Z,13.21
2023-03-31T09:35:23.081Z,13.25
2023-03-31T09:37:53.263Z,13.44
2023-03-31T09:40:24.361Z,13.17
2023-03-31T09:42:58.952Z,13.22
2023-03-31T09:45:26.967Z,13.47
2023-03-31T09:48:07.037Z,13.32
2023-03-31T09:50:47.482Z,13.16
2023-03-31T09:53:20.299Z,12.89
2023-03-31T09:55:53.067Z,12.75
2023-03-31T09:58:25.214Z,12.86
2023-03-31T10:00:58.990Z,12.97
2023-03-31T10:03:37.147Z,13.10
2023-03-31T10:06:11.871Z,12.98
2023-03-31T10:08:56.014Z,12.98
2023-03-31T10:11:27.910Z,13.07
2023-03-31T10:14:04.140Z,13.24
2023-03-31T10:16:57.486Z,13.25
2023-03-31T10:19:25.641Z,13.20
2023-03-31T10:22:22.121Z,13.25
2023-03-31T10:24:51.944Z,13.59
2023-03-31T10:27:29.479Z,13.41
2023-03-31T10:30:05.592Z,13.44
2023-03-31T10:32:44.203Z,13.51
2023-03-31T10:35:30.234Z,13.53
2023-03-31T10:38:00.470Z,13.76
2023-03-31T10:40:30.421Z,13.85
2023-03-31T10:43:04.208Z,13.87
2023-03-31T10:45:42.457Z,13.98
2023-03-31T10:48:26.975Z,14.00
2023-03-31T10:51:00.374Z,13.98
2023-03-31T10:53:42.448Z,13.88
2023-03-31T10:56:15.812Z,13.76
2023-03-31T10:59:05.453Z,13.98
2023-03-31T11:02:02.192Z,13.89
2023-03-31T11:04:45.150Z,14.21
2023-03-31T11:07:49.126Z,14.42
2023-03-31T11:10:17.606Z,14.45
2023-03-31T11:13:00.216Z,14.41
2023-03-31T11:15:42.979Z,14.33
2023-03-31T11:18:19.139Z,14.16
2023-03-31T11:21:12.431Z,13.98
2023-03-31T11:23:44.450Z,14.10
2023-03-31T11:26:58.326Z,14.14
2023-03-31T11:29:41.629Z,14.12
2023-03-31T11:32:34.697Z,14.28
2023-03-31T11:35:17.190Z,14.39
2023-03-31T11:38:07.074Z,14.46
2023-03-31T11:40:43.875Z,14.41
2023-03-31T11:43:22.819Z,14.35
2023-03-31T11:46:06.095Z,14.38
2023-03-31T11:49:00.103Z,14.36
2023-03-31T11:51:40.587Z,14.39
2023-03-31T11:54:15.612Z,14.40
2023-03-31T11:56:44.215Z,14.34
2023-03-31T11:59:15.962Z,14.25
2023-03-31T12:01:54.704Z,14.26
2023-03-31T12:04:41.133Z,14.47
2023-03-31T12:07:39.765Z,14.19
2023-03-31T12:10:38.409Z,14.26
2023-03-31T12:13:19.039Z,14.18
2023-03-31T12:16:01.874Z,14.30
2023-03-31T12:18:36.304Z,14.35
2023-03-31T12:21:05.974Z,14.38
2023-03-31T12:23:41.198Z,14.55
2023-03-31T12:26:24.377Z,14.64
2023-03-31T12:28:58.901Z,14.67
2023-03-31T12:31:34.257Z,14.71
2023-03-31T12:34:07.961Z,14.75
2023-03-31T12:37:01.097Z,14.63
2023-03-31T12:39:37.641Z,14.57
2023-03-31T12:42:25.205Z,14.62
2023-03-31T12:45:15.062Z,14.51
2023-03-31T12:48:13.762Z,14.69
2023-03-31T12:51:26.126Z,14.76
2023-03-31T12:54:32.356Z,14.72
2023-03-31T12:57:09.533Z,14.71
2023-03-31T12:59:41.327Z,14.71
2023-03-31T13:02:24.505Z,14.69
2023-03-31T13:04:53.938Z,14.69
2023-03-31T13:07:33.831Z,14.60
2023-03-31T13:10:32.363Z,14.68
2023-03-31T13:13:01.998Z,14.68
2023-03-31T13:15:32.818Z,14.64
2023-03-31T13:18:09.612Z,14.53
2023-03-31T13:23:37.556Z,14.35
2023-03-31T13:26:07.503Z,14.43
2023-03-31T13:28:45.928Z,14.37
2023-03-31T13:31:15.272Z,14.43
2023-03-31T13:34:00.504Z,14.45
2023-03-31T13:36:44.257Z,14.45
2023-03-31T13:39:47.747Z,14.48
2023-03-31T13:42:38.125Z,14.39
2023-03-31T13:45:21.344Z,14.35
2023-03-31T13:48:15.730Z,14.17
2023-03-31T13:51:01.944Z,14.15
2023-03-31T13:53:48.569Z,14.06
2023-03-31T13:56:29.542Z,14.00
2023-03-31T13:59:18.763Z,13.89
2023-03-31T14:02:06.445Z,13.95
2023-03-31T14:05:01.473Z,13.96
2023-03-31T14:07:32.327Z,13.93
2023-03-31T14:10:07.555Z,13.86
2023-03-31T14:12:38.374Z,13.75
2023-03-31T14:15:21.661Z,13.69
2023-03-31T14:17:49.686Z,13.67
2023-03-31T14:20:28.204Z,13.73
2023-03-31T14:23:23.982Z,13.59
2023-03-31T14:26:30.618Z,13.56
2023-03-31T14:29:13.041Z,13.37
2023-03-31T14:32:14.357Z,13.35
2023-03-31T14:35:26.917Z,13.25
2023-03-31T14:38:02.250Z,13.24
2023-03-31T14:40:31.164Z,13.25
2023-03-31T14:42:59.484Z,13.21
2023-03-31T14:45:31.878Z,13.13
2023-03-31T14:48:05.878Z,13.07
2023-03-31T14:50:40.111Z,13.02
2023-03-31T14:53:15.683Z,12.97
2023-03-31T14:55:57.878Z,12.77
2023-03-31T14:58:36.142Z,12.77
2023-03-31T15:01:26.612Z,12.63
2023-03-31T15:03:56.270Z,12.63
2023-03-31T15:06:28.357Z,12.61
2023-03-31T15:08:57.965Z,12.56
2023-03-31T15:11:29.208Z,12.49
2023-03-31T15:14:05.067Z,12.45
2023-03-31T15:16:45.119Z,12.41
2023-03-31T15:19:23.263Z,12.35
2023-03-31T15:22:05.193Z,12.28
2023-03-31T15:24:38.409Z,12.19
2023-03-31T15:27:20.369Z,12.15
2023-03-31T15:29:51.030Z,12.08
2023-03-31T15:32:28.381Z,12.03
2023-03-31T15:35:14.892Z,11.96
2023-03-31T15:37:54.649Z,11.82
2023-03-31T15:40:29.939Z,11.79
2023-03-31T15:43:25.961Z,11.70
2023-03-31T15:45:59.482Z,11.66
2023-03-31T15:48:50.543Z,11.57
2023-03-31T15:51:21.163Z,11.47
2023-03-31T15:53:54.237Z,11.36
2023-03-31T15:56:35.047Z,11.29
2023-03-31T15:59:27.675Z,11.18
2023-03-31T16:02:00.308Z,11.10
2023-03-31T16:04:33.582Z,10.94
2023-03-31T16:07:10.456Z,10.91
2023-03-31T16:09:47.047Z,10.79
2023-03-31T16:12:30.607Z,10.77
2023-03-31T16:15:08.247Z,10.71
2023-03-31T16:17:40.582Z,10.69
2023-03-31T16:20:25.926Z,10.61
2023-03-31T16:22:58.311Z,10.57
2023-03-31T16:25:31.320Z,10.54
2023-03-31T16:28:03.320Z,10.46
2023-03-31T16:30:41.708Z,10.40
2023-03-31T16:33:10.858Z,10.41
2023-03-31T16:35:44.795Z,10.33
2023-03-31T16:38:16.508Z,10.23
2023-03-31T16:40:50.758Z,10.20
2023-03-31T16:43:23.821Z,10.17
2023-03-31T16:45:59.497Z,10.18
2023-03-31T16:48:29.467Z,10.11
2023-03-31T16:51:04.585Z,10.06
2023-03-31T16:53:35.102Z,9.96
2023-03-31T16:56:08.595Z,9.91
2023-03-31T16:58:38.228Z,9.86
2023-03-31T17:01:07.903Z,9.81
2023-03-31T17:03:44.468Z,9.72
2023-03-31T17:06:13.831Z,9.66
2023-03-31T17:08:44.150Z,9.61
2023-03-31T17:11:14.661Z,9.51
2023-03-31T17:13:45.169Z,9.37
2023-03-31T17:16:22.120Z,9.28
2023-03-31T17:18:58.179Z,9.24
2023-03-31T17:21:26.472Z,9.18
2023-03-31T17:23:55.408Z,9.15
2023-03-31T17:26:29.552Z,9.10
2023-03-31T17:29:01.371Z,9.06
2023-03-31T17:31:32.469Z,9.04
2023-03-31T17:34:01.861Z,9.02
2023-03-31T17:36:31.400Z,8.94
2023-03-31T17:39:05.370Z,8.99
2023-03-31T17:41:36.893Z,8.98
2023-03-31T17:44:05.368Z,9.03
2023-03-31T17:46:36.482Z,9.10
2023-03-31T17:49:08.642Z,9.18
2023-03-31T17:51:37.656Z,9.19
2023-03-31T17:54:07.337Z,9.24
2023-03-31T17:56:36.876Z,9.27
2023-03-31T17:59:05.685Z,9.35
2023-03-31T18:01:34.745Z,9.34
2023-03-31T18:04:03.151Z,9.32
2023-03-31T18:06:36.086Z,9.29
2023-03-31T18:09:06.274Z,9.28
2023-03-31T18:11:39.177Z,9.27
2023-03-31T18:14:11.494Z,9.27
2023-03-31T18:16:40.347Z,9.29
2023-03-31T18:19:08.573Z,9.30
2023-03-31T18:21:39.776Z,9.30
2023-03-31T18:24:08.454Z,9.27
2023-03-31T18:26:37.116Z,9.34
2023-03-31T18:29:08.190Z,9.32
2023-03-31T18:31:36.389Z,9.29
2023-03-31T18:34:04.665Z,9.24
2023-03-31T18:36:35.786Z,9.30
2023-03-31T18:39:04.600Z,9.30
2023-03-31T18:41:32.909Z,9.34
2023-03-31T18:44:01.426Z,9.28
2023-03-31T18:46:29.738Z,9.24
2023-03-31T18:48:58.602Z,9.30
2023-03-31T18:51:27.494Z,9.28
2023-03-31T18:53:59.789Z,9.24
2023-03-31T18:56:28.455Z,9.23
2023-03-31T18:59:00.260Z,9.22
2023-03-31T19:01:29.582Z,9.21
2023-03-31T19:04:24.305Z,9.16
2023-03-31T19:06:56.379Z,9.17
2023-03-31T19:09:28.247Z,9.13
2023-03-31T19:12:00.307Z,9.13
2023-03-31T19:14:33.002Z,9.08
2023-03-31T19:17:04.912Z,9.07
2023-03-31T19:19:36.677Z,9.08
2023-03-31T19:22:12.640Z,8.98
2023-03-31T19:24:40.906Z,8.97
2023-03-31T19:27:11.278Z,8.94
2023-03-31T19:29:42.792Z,8.97
2023-03-31T19:32:11.006Z,8.96
2023-03-31T19:34:40.316Z,8.97
2023-03-31T19:37:09.961Z,8.93
2023-03-31T19:39:39.005Z,8.91
2023-03-31T19:42:07.563Z,8.82
2023-03-31T19:44:38.195Z,8.88
2023-03-31T19:47:06.604Z,8.80
2023-03-31T19:49:36.284Z,8.85
2023-03-31T19:52:07.592Z,8.71
2023-03-31T19:54:38.129Z,8.78
2023-03-31T19:57:13.736Z,8.74
2023-03-31T19:59:42.709Z,8.68
2023-03-31T20:02:15.981Z,8.60
2023-03-31T20:04:48.111Z,8.68
2023-03-31T20:07:16.343Z,8.62
2023-03-31T20:09:44.728Z,8.60
2023-03-31T20:12:14.615Z,8.54
2023-03-31T20:14:43.956Z,8.53
2023-03-31T20:17:18.537Z,8.51
2023-03-31T20:19:47.562Z,8.50
2023-03-31T20:22:18.394Z,8.48
2023-03-31T20:24:50.609Z,8.44
2023-03-31T20:27:19.038Z,8.49
2023-03-31T20:29:51.250Z,8.44
2023-03-31T20:32:22.778Z,8.45
2023-03-31T20:34:51.362Z,8.41
2023-03-31T20:37:20.660Z,8.41
2023-03-31T20:39:50.149Z,8.40
2023-03-31T20:42:19.220Z,8.31
2023-03-31T20:44:47.885Z,8.36
2023-03-31T20:47:17.909Z,8.28
2023-03-31T20:49:46.760Z,8.35
2023-03-31T20:52:16.032Z,8.40
2023-03-31T20:54:44.499Z,8.37
2023-03-31T20:57:14.784Z,8.29
2023-03-31T20:59:44.311Z,8.35
2023-03-31T21:02:16.736Z,8.33
2023-03-31T21:04:44.903Z,8.24
2023-03-31T21:07:13.755Z,8.26
2023-03-31T21:09:44.622Z,8.13
2023-03-31T21:12:16.123Z,8.09
2023-03-31T21:14:45.738Z,8.07
2023-03-31T21:17:14.127Z,8.04
2023-03-31T21:19:42.425Z,8.02
2023-03-31T21:22:10.581Z,7.95
2023-03-31T21:24:39.042Z,7.92
2023-03-31T21:27:07.273Z,7.95
2023-03-31T21:29:38.410Z,7.92
2023-03-31T21:32:07.464Z,7.91
2023-03-31T21:34:36.847Z,7.90
2023-03-31T21:37:05.214Z,7.93
2023-03-31T21:39:38.877Z,7.91
2023-03-31T21:42:07.073Z,7.90
2023-03-31T21:44:37.839Z,7.87
2023-03-31T21:47:08.255Z,7.84
2023-03-31T21:49:38.222Z,7.92
2023-03-31T21:52:08.863Z,7.91
2023-03-31T21:54:37.017Z,7.87
2023-03-31T21:57:05.495Z,7.86
2023-03-31T21:59:58.591Z,7.77
2023-03-31T22:02:27.226Z,7.67
2023-03-31T22:05:00.072Z,7.59
2023-03-31T22:07:28.560Z,7.53
2023-03-31T22:09:57.133Z,7.48
2023-03-31T22:12:29.621Z,7.49
2023-03-31T22:14:58.101Z,7.43
2023-03-31T22:17:45.639Z,7.40
2023-03-31T22:20:14.320Z,7.37
2023-03-31T22:22:42.623Z,7.33
2023-03-31T22:25:11.005Z,7.34
2023-03-31T22:27:39.208Z,7.34
2023-03-31T22:30:08.294Z,7.25
2023-03-31T22:32:37.158Z,7.33
2023-03-31T22:35:06.014Z,7.38
2023-03-31T22:37:34.228Z,7.43
2023-03-31T22:40:02.329Z,7.49
2023-03-31T22:42:30.721Z,7.55
2023-03-31T22:44:59.810Z,7.56
2023-03-31T22:47:33.852Z,7.62
2023-03-31T22:50:02.609Z,7.62
2023-03-31T22:52:30.851Z,7.71
2023-03-31T22:54:59.579Z,7.70
2023-03-31T22:57:28.294Z,7.71
2023-03-31T22:59:56.997Z,7.75
2023-03-31T23:02:25.197Z,7.71
2023-03-31T23:04:53.438Z,7.70
2023-03-31T23:07:22.670Z,7.77
2023-03-31T23:09:51.505Z,7.73
2023-03-31T23:12:21.775Z,7.75
2023-03-31T23:14:51.513Z,7.73
2023-03-31T23:17:20.010Z,7.77
2023-03-31T23:19:48.153Z,7.76
2023-03-31T23:22:16.419Z,7.79
2023-03-31T23:24:46.875Z,7.80
2023-03-31T23:27:15.868Z,7.78
2023-03-31T23:29:48.152Z,7.80
2023-03-31T23:32:16.695Z,7.76
2023-03-31T23:34:48.234Z,7.76
2023-03-31T23:37:16.977Z,7.77
2023-03-31T23:39:46.013Z,7.78
2023-03-31T23:42:20.052Z,7.79
2023-03-31T23:44:49.541Z,7.72
2023-03-31T23:47:17.520Z,7.66
2023-03-31T23:49:47.953Z,7.69
2023-03-31T23:52:16.201Z,7.64
2023-03-31T23:54:44.673Z,7.56
2023-03-31T23:57:12.900Z,7.51
2023-03-31T23:59:41.650Z,7.55
